Decoded Metar for KMBY ( in ) (IATA:) | Meteo·Mobile Aviation Weather
aviador You're here:

KMBY Decoded Metar

in
Report Time2018-08-22 01:15:00
UTC Time2018-08-22 01:32:12
Flight Rules vfr VFR
Wind310° at 05 kt
W.Decomp.*RWY 31: 5.0 kt HW 0 kt LCW
RWY 23: 0.9 kt HW 4.9 kt RCW
W.Rank310° ranks 14
Current wind is below 310° avg. (8.7)
Visibility9999 m
Phenomena:N/A
Clouds:N/A
Expected CloudBase > 2,800 ft AGL from Temp-Dew spread
CeilingNone
Temp23°C
Dew Point16°C (65% RH)
QNH1019 hPa
Raw Report
KMBY 220115Z AUTO 31005KT 10SM CLR 23/16 A3010 RMK AO2=

Extra information for KMBY:More info

Social comments